createdAt,value
2022-11-22T00:00:43.126Z,7.43
2022-11-22T00:03:10.358Z,7.47
2022-11-22T00:05:38.204Z,7.51
2022-11-22T00:08:06.142Z,7.44
2022-11-22T00:10:34.106Z,7.48
2022-11-22T00:13:01.609Z,7.40
2022-11-22T00:15:29.968Z,7.42
2022-11-22T00:17:57.745Z,7.47
2022-11-22T00:20:25.523Z,7.57
2022-11-22T00:22:53.211Z,7.52
2022-11-22T00:25:20.449Z,7.55
2022-11-22T00:27:47.817Z,7.50
2022-11-22T00:30:15.377Z,7.51
2022-11-22T00:32:42.687Z,7.42
2022-11-22T00:35:11.724Z,7.26
2022-11-22T00:37:39.544Z,7.25
2022-11-22T00:40:07.536Z,7.26
2022-11-22T00:42:34.911Z,7.21
2022-11-22T00:45:02.216Z,7.16
2022-11-22T00:47:29.376Z,6.96
2022-11-22T00:49:56.519Z,6.86
2022-11-22T00:52:23.797Z,6.77
2022-11-22T00:54:54.756Z,6.77
2022-11-22T00:57:22.886Z,6.74
2022-11-22T00:59:50.388Z,6.79
2022-11-22T01:02:17.490Z,6.67
2022-11-22T01:04:44.652Z,6.76
2022-11-22T01:07:12.328Z,6.69
2022-11-22T01:09:39.578Z,6.56
2022-11-22T01:12:07.034Z,6.78
2022-11-22T01:14:34.592Z,6.92
2022-11-22T01:17:01.860Z,7.06
2022-11-22T01:19:29.139Z,7.14
2022-11-22T01:21:56.649Z,7.20
2022-11-22T01:24:24.088Z,7.25
2022-11-22T01:26:51.517Z,7.29
2022-11-22T01:29:18.810Z,7.31
2022-11-22T01:31:45.908Z,7.41
2022-11-22T01:34:14.308Z,7.47
2022-11-22T01:36:41.562Z,7.37
2022-11-22T01:39:09.051Z,7.21
2022-11-22T01:41:36.276Z,7.24
2022-11-22T01:44:27.116Z,7.27
2022-11-22T01:47:19.285Z,7.24
2022-11-22T01:49:49.726Z,7.31
2022-11-22T01:52:20.543Z,7.32
2022-11-22T01:54:55.561Z,7.27
2022-11-22T01:57:26.906Z,7.25
2022-11-22T01:59:59.603Z,7.28
2022-11-22T02:02:28.261Z,7.34
2022-11-22T02:04:58.868Z,7.34
2022-11-22T02:07:55.107Z,7.27
2022-11-22T02:10:25.389Z,7.18
2022-11-22T02:12:54.821Z,7.20
2022-11-22T02:15:22.181Z,7.17
2022-11-22T02:17:49.384Z,7.24
2022-11-22T02:20:17.674Z,7.18
2022-11-22T02:22:54.505Z,7.08
2022-11-22T02:25:36.793Z,7.19
2022-11-22T02:28:05.098Z,7.19
2022-11-22T02:30:32.594Z,7.22
2022-11-22T02:32:59.685Z,7.21
2022-11-22T02:35:29.511Z,7.19
2022-11-22T02:38:06.985Z,7.09
2022-11-22T02:40:42.549Z,7.09
2022-11-22T02:43:13.820Z,7.17
2022-11-22T02:45:41.042Z,7.21
2022-11-22T02:48:14.183Z,7.03
2022-11-22T02:50:42.060Z,7.05
2022-11-22T02:53:10.837Z,7.02
2022-11-22T02:55:38.527Z,7.00
2022-11-22T02:58:06.484Z,6.98
2022-11-22T03:00:35.358Z,6.95
2022-11-22T03:03:02.614Z,6.93
2022-11-22T03:05:30.088Z,6.88
2022-11-22T03:07:57.220Z,6.81
2022-11-22T03:10:24.642Z,6.82
2022-11-22T03:12:51.895Z,6.75
2022-11-22T03:15:19.092Z,6.74
2022-11-22T03:17:46.424Z,6.61
2022-11-22T03:20:14.077Z,6.77
2022-11-22T03:22:41.247Z,6.79
2022-11-22T03:25:08.724Z,6.93
2022-11-22T03:27:36.059Z,6.93
2022-11-22T03:30:03.409Z,7.00
2022-11-22T03:32:30.962Z,7.10
2022-11-22T03:34:58.308Z,7.18
2022-11-22T03:37:25.531Z,7.23
2022-11-22T03:39:52.716Z,7.28
2022-11-22T03:42:22.058Z,7.31
2022-11-22T03:44:49.585Z,7.26
2022-11-22T03:47:16.844Z,7.24
2022-11-22T03:49:44.092Z,7.21
2022-11-22T03:52:11.759Z,7.16
2022-11-22T03:54:39.076Z,6.87
2022-11-22T03:57:06.291Z,6.89
2022-11-22T03:59:33.622Z,6.89
2022-11-22T04:02:00.849Z,6.86
2022-11-22T04:04:28.187Z,6.73
2022-11-22T04:06:55.553Z,6.79
2022-11-22T04:09:22.757Z,6.83
2022-11-22T04:11:50.028Z,6.77
2022-11-22T04:14:35.821Z,6.65
2022-11-22T04:17:03.157Z,6.61
2022-11-22T04:19:30.613Z,6.73
2022-11-22T04:21:58.484Z,6.83
2022-11-22T04:24:51.977Z,6.83
2022-11-22T04:27:19.523Z,6.85
2022-11-22T04:29:46.824Z,6.82
2022-11-22T04:32:32.732Z,6.81
2022-11-22T04:35:00.093Z,6.67
2022-11-22T04:37:27.364Z,6.75
2022-11-22T04:39:54.558Z,6.83
2022-11-22T04:42:40.386Z,6.81
2022-11-22T04:45:08.514Z,6.81
2022-11-22T04:47:54.167Z,6.81
2022-11-22T04:50:39.838Z,6.76
2022-11-22T04:53:07.099Z,6.60
2022-11-22T04:55:34.471Z,6.37
2022-11-22T04:58:03.625Z,6.22
2022-11-22T05:00:32.065Z,6.37
2022-11-22T05:02:59.755Z,6.52
2022-11-22T05:05:27.581Z,6.49
2022-11-22T05:07:55.178Z,6.45
2022-11-22T05:10:26.551Z,6.39
2022-11-22T05:12:55.341Z,6.39
2022-11-22T05:15:22.984Z,6.38
2022-11-22T05:17:50.481Z,6.40
2022-11-22T05:20:17.829Z,6.34
2022-11-22T05:23:03.469Z,6.25
2022-11-22T05:25:30.548Z,6.17
2022-11-22T05:27:57.917Z,6.19
2022-11-22T05:30:25.147Z,6.26
2022-11-22T05:32:52.384Z,6.28
2022-11-22T05:35:19.604Z,6.27
2022-11-22T05:37:46.753Z,6.26
2022-11-22T05:40:13.854Z,6.20
2022-11-22T05:42:41.033Z,6.26
2022-11-22T05:45:08.800Z,6.23
2022-11-22T05:47:37.099Z,6.27
2022-11-22T05:50:04.707Z,6.25
2022-11-22T05:52:32.520Z,6.24
2022-11-22T05:54:59.766Z,6.14
2022-11-22T05:57:27.659Z,6.05
2022-11-22T05:59:54.846Z,6.02
2022-11-22T06:02:22.111Z,6.11
2022-11-22T06:04:49.487Z,6.19
2022-11-22T06:07:17.039Z,6.18
2022-11-22T06:09:44.545Z,6.23
2022-11-22T06:12:11.787Z,6.10
2022-11-22T06:14:43.262Z,5.87
2022-11-22T06:17:11.014Z,5.97
2022-11-22T06:19:38.258Z,6.12
2022-11-22T06:22:06.394Z,6.24
2022-11-22T06:24:33.652Z,6.33
2022-11-22T06:27:01.231Z,6.47
2022-11-22T06:29:30.048Z,6.56
2022-11-22T06:32:03.230Z,6.60
2022-11-22T06:34:31.290Z,6.47
2022-11-22T06:36:58.491Z,6.44
2022-11-22T06:39:25.654Z,6.34
2022-11-22T06:41:53.043Z,6.20
2022-11-22T06:44:20.537Z,6.18
2022-11-22T06:46:47.974Z,6.18
2022-11-22T06:49:15.285Z,6.32
2022-11-22T06:51:42.538Z,6.46
2022-11-22T06:54:12.917Z,6.62
2022-11-22T06:56:41.376Z,6.70
2022-11-22T06:59:09.723Z,6.83
2022-11-22T07:01:37.773Z,6.97
2022-11-22T07:04:05.964Z,7.02
2022-11-22T07:06:35.795Z,7.22
2022-11-22T07:09:05.956Z,7.19
2022-11-22T07:11:33.143Z,7.34
2022-11-22T07:14:07.078Z,7.49
2022-11-22T07:16:36.936Z,7.52
2022-11-22T07:19:04.909Z,7.55
2022-11-22T07:21:32.683Z,7.54
2022-11-22T07:24:00.108Z,7.35
2022-11-22T07:26:28.772Z,7.44
2022-11-22T07:28:58.975Z,7.31
2022-11-22T07:31:26.381Z,7.25
2022-11-22T07:33:55.312Z,7.16
2022-11-22T07:36:23.339Z,7.17
2022-11-22T07:38:51.570Z,7.30
2022-11-22T07:41:20.029Z,7.36
2022-11-22T07:43:47.549Z,7.36
2022-11-22T07:46:29.906Z,7.49
2022-11-22T07:49:01.894Z,7.62
2022-11-22T07:51:29.911Z,7.60
2022-11-22T07:53:58.024Z,7.52
2022-11-22T07:56:25.423Z,7.67
2022-11-22T07:58:52.647Z,7.73
2022-11-22T08:01:21.800Z,7.71
2022-11-22T08:03:49.127Z,7.77
2022-11-22T08:06:16.863Z,7.83
2022-11-22T08:08:44.475Z,7.91
2022-11-22T08:11:12.382Z,7.95
2022-11-22T08:13:40.157Z,7.91
2022-11-22T08:16:15.114Z,7.93
2022-11-22T08:18:46.862Z,7.99
2022-11-22T08:21:15.149Z,8.15
2022-11-22T08:23:43.692Z,8.30
2022-11-22T08:26:13.691Z,8.55
2022-11-22T08:28:42.672Z,8.75
2022-11-22T08:31:16.511Z,8.84
2022-11-22T08:33:43.691Z,9.07
2022-11-22T08:36:10.970Z,9.23
2022-11-22T08:38:38.137Z,9.40
2022-11-22T08:41:08.421Z,9.55
2022-11-22T08:43:36.043Z,9.69
2022-11-22T08:46:04.322Z,9.77
2022-11-22T08:48:34.248Z,9.83
2022-11-22T08:51:06.684Z,10.05
2022-11-22T08:53:36.454Z,10.19
2022-11-22T08:56:05.884Z,10.20
2022-11-22T08:58:34.082Z,10.29
2022-11-22T09:01:13.643Z,10.40
2022-11-22T09:03:42.129Z,10.44
2022-11-22T09:09:22.125Z,10.56
2022-11-22T09:11:46.171Z,10.65
2022-11-22T09:14:13.815Z,10.70
2022-11-22T09:16:41.109Z,10.64
2022-11-22T09:19:08.192Z,10.81
2022-11-22T09:21:35.554Z,10.93
2022-11-22T09:24:02.858Z,11.05
2022-11-22T09:26:30.240Z,11.18
2022-11-22T09:28:57.837Z,11.24
2022-11-22T09:31:25.530Z,11.17
2022-11-22T09:33:52.727Z,11.26
2022-11-22T09:36:22.293Z,11.25
2022-11-22T09:38:51.336Z,11.24
2022-11-22T09:41:21.664Z,11.23
2022-11-22T09:44:27.768Z,11.11
2022-11-22T09:47:11.102Z,11.11
2022-11-22T09:49:54.118Z,10.99
2022-11-22T09:52:33.487Z,10.96
2022-11-22T09:55:07.140Z,10.90
2022-11-22T09:57:44.415Z,10.88
2022-11-22T10:00:25.406Z,10.83
2022-11-22T10:03:01.039Z,10.71
2022-11-22T10:05:34.791Z,10.72
2022-11-22T10:08:18.234Z,10.77
2022-11-22T10:10:45.605Z,10.75
2022-11-22T10:13:19.733Z,10.75
2022-11-22T10:15:56.068Z,10.75
2022-11-22T10:18:46.101Z,10.69
2022-11-22T10:21:14.890Z,10.71
2022-11-22T10:23:43.354Z,10.73
2022-11-22T10:26:37.494Z,10.73
2022-11-22T10:29:28.544Z,10.83
2022-11-22T10:32:19.435Z,10.85
2022-11-22T10:35:04.326Z,10.93
2022-11-22T10:37:53.311Z,11.15
2022-11-22T10:40:33.034Z,11.16
2022-11-22T10:43:21.634Z,11.15
2022-11-22T10:46:15.233Z,11.08
2022-11-22T10:49:20.800Z,11.10
2022-11-22T10:52:03.194Z,11.11
2022-11-22T10:54:58.763Z,10.92
2022-11-22T10:57:46.313Z,10.83
2022-11-22T11:00:29.393Z,11.03
2022-11-22T11:03:30.473Z,11.09
2022-11-22T11:06:38.081Z,11.05
2022-11-22T11:12:28.102Z,11.05
2022-11-22T11:15:13.362Z,10.95
2022-11-22T11:17:44.898Z,11.03
2022-11-22T11:20:28.833Z,11.00
2022-11-22T11:25:45.694Z,11.06
2022-11-22T11:28:30.259Z,11.05
2022-11-22T11:31:18.966Z,11.10
2022-11-22T11:33:46.995Z,11.12
2022-11-22T11:36:23.762Z,11.13
2022-11-22T11:38:58.290Z,11.13
2022-11-22T11:41:40.440Z,11.13
2022-11-22T11:44:33.362Z,11.17
2022-11-22T11:47:01.762Z,11.17
2022-11-22T11:49:31.476Z,11.27
2022-11-22T11:52:00.134Z,11.34
2022-11-22T11:54:44.296Z,11.39
2022-11-22T11:57:13.913Z,11.46
2022-11-22T11:59:41.162Z,11.44
2022-11-22T12:02:17.745Z,11.40
2022-11-22T12:04:52.527Z,11.39
2022-11-22T12:07:22.672Z,11.46
2022-11-22T12:09:51.953Z,11.41
2022-11-22T12:12:31.484Z,11.39
2022-11-22T12:15:35.664Z,11.35
2022-11-22T12:18:26.308Z,11.27
2022-11-22T12:21:04.449Z,11.24
2022-11-22T12:26:49.328Z,11.26
2022-11-22T12:29:16.991Z,11.18
2022-11-22T12:32:17.348Z,11.10
2022-11-22T12:34:55.170Z,11.17
2022-11-22T12:37:29.558Z,11.15
2022-11-22T12:40:04.561Z,11.09
2022-11-22T12:42:43.834Z,11.13
2022-11-22T12:45:22.911Z,11.16
2022-11-22T12:47:51.387Z,11.12
2022-11-22T12:48:23.828Z,11.20
2022-11-22T12:50:24.543Z,11.21
2022-11-22T12:53:15.845Z,11.21
2022-11-22T12:55:47.046Z,11.28
2022-11-22T12:58:53.319Z,11.25
2022-11-22T13:01:29.325Z,11.22
2022-11-22T13:04:04.108Z,11.18
2022-11-22T13:06:53.871Z,11.21
2022-11-22T13:09:35.142Z,11.19
2022-11-22T13:12:05.435Z,11.25
2022-11-22T13:14:47.747Z,11.15
2022-11-22T13:17:17.633Z,11.10
2022-11-22T13:19:50.617Z,11.17
2022-11-22T13:22:42.967Z,11.11
2022-11-22T13:25:46.284Z,11.17
2022-11-22T13:28:18.399Z,11.21
2022-11-22T13:31:07.419Z,11.22
2022-11-22T13:33:37.225Z,11.19
2022-11-22T13:36:29.082Z,11.24
2022-11-22T13:39:05.605Z,11.23
2022-11-22T13:42:02.768Z,11.25
2022-11-22T13:44:33.653Z,11.19
2022-11-22T13:47:06.414Z,11.19
2022-11-22T13:49:46.833Z,11.22
2022-11-22T13:52:15.583Z,11.17
2022-11-22T13:54:56.510Z,11.23
2022-11-22T13:57:36.990Z,11.20
2022-11-22T14:00:10.428Z,11.26
2022-11-22T14:02:40.329Z,11.26
2022-11-22T14:05:25.382Z,11.26
2022-11-22T14:07:57.285Z,11.26
2022-11-22T14:10:30.581Z,11.27
2022-11-22T14:13:09.992Z,11.28
2022-11-22T14:15:51.754Z,11.32
2022-11-22T14:18:49.795Z,11.30
2022-11-22T14:21:22.860Z,11.25
2022-11-22T14:24:11.632Z,11.16
2022-11-22T14:27:03.240Z,11.18
2022-11-22T14:30:12.078Z,11.17
2022-11-22T14:33:07.933Z,11.14
2022-11-22T14:35:37.943Z,11.24
2022-11-22T14:38:29.256Z,11.24
2022-11-22T14:41:27.839Z,11.21
2022-11-22T14:44:07.466Z,11.16
2022-11-22T14:47:03.696Z,11.16
2022-11-22T14:49:47.883Z,11.08
2022-11-22T14:52:25.517Z,11.05
2022-11-22T14:54:57.730Z,10.99
2022-11-22T14:57:26.785Z,11.02
2022-11-22T15:00:13.309Z,11.01
2022-11-22T15:03:08.176Z,10.88
2022-11-22T15:09:16.477Z,10.80
2022-11-22T15:09:16.588Z,10.81
2022-11-22T15:11:29.005Z,10.83
2022-11-22T15:14:15.042Z,10.80
2022-11-22T15:59:44.273Z,9.74
2022-11-22T16:02:19.267Z,9.78
2022-11-22T16:06:09.700Z,9.83
2022-11-22T16:07:56.845Z,9.82
2022-11-22T16:10:37.949Z,9.81
2022-11-22T16:13:26.600Z,9.71
2022-11-22T16:16:12.047Z,9.66
2022-11-22T16:18:43.654Z,9.51
2022-11-22T16:21:13.485Z,9.61
2022-11-22T16:23:45.559Z,9.56
2022-11-22T16:26:20.006Z,9.48
2022-11-22T16:28:49.511Z,9.48
2022-11-22T16:31:18.296Z,9.45
2022-11-22T16:33:46.193Z,9.63
2022-11-22T16:36:15.588Z,9.59
2022-11-22T16:38:43.915Z,9.52
2022-11-22T16:41:21.590Z,9.47
2022-11-22T16:43:52.453Z,9.48
2022-11-22T16:46:20.221Z,9.55
2022-11-22T16:48:47.835Z,9.57
2022-11-22T16:51:26.200Z,9.49
2022-11-22T16:53:53.703Z,9.53
2022-11-22T16:56:30.328Z,9.62
2022-11-22T16:58:58.332Z,9.69
2022-11-22T17:01:31.094Z,9.73
2022-11-22T17:04:00.514Z,9.64
2022-11-22T17:06:30.199Z,9.57
2022-11-22T17:08:59.287Z,9.63
2022-11-22T17:11:30.643Z,9.57
2022-11-22T17:13:59.176Z,9.48
2022-11-22T17:16:26.409Z,9.33
2022-11-22T17:18:53.706Z,9.34
2022-11-22T17:21:34.445Z,9.38
2022-11-22T17:24:05.793Z,9.30
2022-11-22T17:26:34.864Z,9.26
2022-11-22T17:29:02.277Z,9.31
2022-11-22T17:31:30.160Z,9.24
2022-11-22T17:33:58.986Z,9.16
2022-11-22T17:36:33.279Z,9.16
2022-11-22T17:39:05.825Z,9.18
2022-11-22T17:41:33.691Z,9.20
2022-11-22T17:44:02.117Z,9.20
2022-11-22T17:46:31.064Z,9.25
2022-11-22T17:49:00.789Z,9.20
2022-11-22T17:51:29.469Z,9.30
2022-11-22T17:54:00.394Z,9.38
2022-11-22T17:56:29.179Z,9.36
2022-11-22T17:58:56.298Z,9.28
2022-11-22T18:01:24.073Z,9.29
2022-11-22T18:03:51.675Z,9.21
2022-11-22T18:06:23.162Z,9.32
2022-11-22T18:08:50.532Z,9.27
2022-11-22T18:11:18.191Z,9.18
2022-11-22T18:13:45.454Z,9.30
2022-11-22T18:16:15.756Z,9.23
2022-11-22T18:18:58.779Z,9.37
2022-11-22T18:21:29.562Z,9.37
2022-11-22T18:24:01.049Z,9.27
2022-11-22T18:26:43.978Z,9.42
2022-11-22T18:32:01.958Z,9.70
2022-11-22T18:34:30.218Z,9.60
2022-11-22T18:37:01.943Z,9.45
2022-11-22T18:39:36.802Z,9.47
2022-11-22T18:42:06.695Z,9.50
2022-11-22T18:44:34.257Z,9.53
2022-11-22T18:47:01.888Z,9.55
2022-11-22T18:49:29.630Z,9.38
2022-11-22T18:51:57.249Z,9.53
2022-11-22T18:54:24.613Z,9.52
2022-11-22T18:56:52.565Z,9.46
2022-11-22T18:59:20.064Z,9.33
2022-11-22T19:01:47.367Z,9.39
2022-11-22T19:04:16.223Z,9.55
2022-11-22T19:06:43.886Z,9.51
2022-11-22T19:09:11.524Z,9.51
2022-11-22T19:11:39.069Z,9.57
2022-11-22T19:14:06.693Z,9.61
2022-11-22T19:16:34.080Z,9.63
2022-11-22T19:19:01.290Z,9.68
2022-11-22T19:21:30.032Z,9.62
2022-11-22T19:23:57.812Z,9.53
2022-11-22T19:26:27.175Z,9.54
2022-11-22T19:28:56.606Z,9.51
2022-11-22T19:31:28.080Z,9.47
2022-11-22T19:33:56.168Z,9.42
2022-11-22T19:36:31.783Z,9.25
2022-11-22T19:39:05.443Z,9.33
2022-11-22T19:41:34.313Z,9.26
2022-11-22T19:44:02.939Z,9.40
2022-11-22T19:46:31.263Z,9.41
2022-11-22T19:49:00.474Z,9.36
2022-11-22T19:51:31.055Z,9.37
2022-11-22T19:54:00.266Z,9.42
2022-11-22T19:56:30.652Z,9.42
2022-11-22T19:58:59.392Z,9.48
2022-11-22T20:01:29.284Z,9.53
2022-11-22T20:03:59.306Z,9.53
2022-11-22T20:06:27.665Z,9.52
2022-11-22T20:09:01.163Z,9.47
2022-11-22T20:11:28.600Z,9.53
2022-11-22T20:13:55.897Z,9.50
2022-11-22T20:16:25.683Z,9.55
2022-11-22T20:19:00.043Z,9.72
2022-11-22T20:21:31.114Z,9.75
2022-11-22T20:23:58.880Z,9.79
2022-11-22T20:26:26.962Z,9.84
2022-11-22T20:28:56.756Z,9.73
2022-11-22T20:31:24.953Z,9.65
2022-11-22T20:33:53.580Z,9.68
2022-11-22T20:36:24.054Z,9.69
2022-11-22T20:38:52.673Z,9.65
2022-11-22T20:41:22.591Z,9.66
2022-11-22T20:43:50.793Z,9.60
2022-11-22T20:46:23.602Z,9.62
2022-11-22T20:48:53.361Z,9.57
2022-11-22T20:51:26.258Z,9.58
2022-11-22T20:53:53.653Z,9.49
2022-11-22T20:56:21.027Z,9.54
2022-11-22T20:58:48.214Z,9.49
2022-11-22T21:01:24.143Z,9.51
2022-11-22T21:03:52.800Z,9.51
2022-11-22T21:06:22.066Z,9.44
2022-11-22T21:08:50.129Z,9.42
2022-11-22T21:11:21.515Z,9.33
2022-11-22T21:13:49.728Z,9.38
2022-11-22T21:16:24.605Z,9.36
2022-11-22T21:18:52.774Z,9.30
2022-11-22T21:21:23.345Z,9.30
2022-11-22T21:23:52.765Z,9.39
2022-11-22T21:26:21.252Z,9.44
2022-11-22T21:28:49.197Z,9.44
2022-11-22T21:31:16.647Z,9.43
2022-11-22T21:33:45.736Z,9.40
2022-11-22T21:36:13.793Z,9.39
2022-11-22T21:38:41.186Z,9.43
2022-11-22T21:41:38.844Z,9.38
2022-11-22T21:44:01.878Z,9.35
2022-11-22T21:46:29.190Z,9.21
2022-11-22T21:48:56.484Z,9.43
2022-11-22T21:51:26.460Z,9.39
2022-11-22T21:53:58.748Z,9.25
2022-11-22T21:56:26.876Z,9.20
2022-11-22T21:58:54.199Z,9.35
2022-11-22T22:01:21.823Z,8.99
2022-11-22T22:03:49.238Z,9.05
2022-11-22T22:06:16.392Z,9.00
2022-11-22T22:08:43.729Z,9.13
2022-11-22T22:11:11.065Z,9.22
2022-11-22T22:13:38.473Z,9.27
2022-11-22T22:16:12.956Z,9.23
2022-11-22T22:18:40.166Z,9.22
2022-11-22T22:21:09.450Z,9.21
2022-11-22T22:23:38.361Z,9.22
2022-11-22T22:26:09.178Z,9.29
2022-11-22T22:28:37.716Z,9.38
2022-11-22T22:31:12.507Z,9.43
2022-11-22T22:33:41.728Z,9.44
2022-11-22T22:36:11.654Z,9.41
2022-11-22T22:38:39.712Z,8.98
2022-11-22T22:41:09.705Z,8.92
2022-11-22T22:43:39.769Z,9.00
2022-11-22T22:46:21.425Z,9.12
2022-11-22T22:48:49.536Z,9.12
2022-11-22T22:51:19.877Z,9.14
2022-11-22T22:53:47.506Z,8.92
2022-11-22T22:56:16.609Z,9.02
2022-11-22T22:58:44.369Z,8.88
2022-11-22T23:01:20.344Z,8.74
2022-11-22T23:04:05.955Z,8.86
2022-11-22T23:06:36.654Z,8.87
2022-11-22T23:09:06.492Z,8.73
2022-11-22T23:11:52.395Z,8.92
2022-11-22T23:14:25.967Z,9.06
2022-11-22T23:16:57.634Z,9.07
2022-11-22T23:19:26.631Z,9.13
2022-11-22T23:21:54.819Z,9.19
2022-11-22T23:24:22.090Z,9.21
2022-11-22T23:26:49.414Z,8.83
2022-11-22T23:29:17.141Z,8.94
2022-11-22T23:31:44.541Z,8.71
2022-11-22T23:34:11.848Z,8.76
2022-11-22T23:36:40.874Z,8.90
2022-11-22T23:39:09.371Z,9.03
2022-11-22T23:41:36.629Z,8.76
2022-11-22T23:44:04.224Z,8.40
2022-11-22T23:46:31.918Z,8.41
2022-11-22T23:49:00.941Z,8.60
2022-11-22T23:51:29.774Z,8.77
2022-11-22T23:54:03.256Z,8.99
2022-11-22T23:56:31.001Z,9.08
2022-11-22T23:59:01.931Z,9.06
